Route Details

Aircraft Information
Group: North America Fleet
Types: B738, B752, B762, B763
Route Data
Distance: 710nm
Duration: 2h 29m
Origin METAR: KLAL 072250Z 09008KT 10SM SKC 23/10 A3024
Dest. METAR: KIAH 072253Z 14014G22KT 10SM FEW020 SCT046 BKN085 21/18 A3001 RMK AO2 SLP162 T02110178
Freight Data
(for Feb 7, 2023)
Load Factor:
83%
Manifested Cargo: 100,967lbs
Financial History
Total Freight: 0lbs
Average Load: 0lbs/flt
Fuel Used: 0lbs
Avg. Fuel Used: 0lbs/flt
Fuel Expense: $0
Avg. Fuel Expense: $0
Avg. Fuel Cost: $0/lbs
Total Gross Income: $0
Pilot Pay: $0
Total Expenses: $0
Total Revenue: $0
Average Revenue: $0

Capitol Logistics 495




KLAL
Lakeland Linder Regional Airport
Lakeland, Florida
KIAH
George Bush Intcntl/Houston Airport
Houston, Texas

Activity Log

Date Flight Route Aircraft Duration
No Flights Yet